aviador You're here:

CYQB Decoded Metar

QUEBEC in QC, CANADA
Report Time2018-02-18 10:00:00
UTC Time2018-02-18 10:11:59
Flight Rules mvfr MVFR
WindCalm
Visibility8047 m
Phenomena:Light Shower Snow
Clouds:Overcast 013 Hf
Expected CloudBase > 400 ft AGL from Temp-Dew spread
Ceiling1,300 ft
Temp-7°C (ISA -22)
Dew Point-8°C (93% RH)
AAT-9.9°C
QNH1015 hPa
Density Alt-2,454 ft
Elevation240 ft
Report Wrong Elevation
Raw Report
CYQB 181000Z 00000KT 5SM -SHSN OVC013 M07/M08 A2996 RMK SN1SC7
CVCTV CLDS EMBD /S01/ SLP153=

Extra information for CYQB:More info

Metar Taf Metar & Taf Last 4 Metars F.Rules Stats Wind Profile Meteogram Temp Stats Airport Information Weather charts Add Link Nearby VenuesMetar ALERT Operation Metar Decoded Social comments

navcanada